createdAt,value
2023-03-17T00:01:55.938Z,99392.03
2023-03-17T00:04:32.671Z,99417.66
2023-03-17T00:07:00.017Z,99413.38
2023-03-17T00:09:27.345Z,99404.38
2023-03-17T00:11:54.642Z,99391.22
2023-03-17T00:14:21.867Z,99387.63
2023-03-17T00:16:50.477Z,99390.31
2023-03-17T00:19:36.619Z,99398.94
2023-03-17T00:22:06.772Z,99398.31
2023-03-17T00:24:33.766Z,99387.78
2023-03-17T00:27:01.239Z,99376.31
2023-03-17T00:29:28.187Z,99386.00
2023-03-17T00:31:57.410Z,99385.28
2023-03-17T00:34:24.500Z,99389.50
2023-03-17T00:36:52.349Z,99398.31
2023-03-17T00:39:19.960Z,99396.44
2023-03-17T00:41:49.851Z,99402.63
2023-03-17T00:44:17.543Z,99399.94
2023-03-17T00:46:44.791Z,99408.63
2023-03-17T00:49:22.132Z,99407.75
2023-03-17T00:51:50.177Z,99396.47
2023-03-17T00:54:19.447Z,99402.78
2023-03-17T00:56:48.188Z,99406.16
2023-03-17T00:59:20.611Z,99404.41
2023-03-17T01:01:48.268Z,99403.50
2023-03-17T01:04:15.804Z,99398.09
2023-03-17T01:06:43.348Z,99393.66
2023-03-17T01:09:17.111Z,99391.13
2023-03-17T01:11:44.424Z,99399.44
2023-03-17T01:14:16.007Z,99414.50
2023-03-17T01:16:43.273Z,99403.03
2023-03-17T01:19:13.398Z,99390.53
2023-03-17T01:21:41.643Z,99382.59
2023-03-17T01:24:09.622Z,99385.13
2023-03-17T01:26:36.953Z,99386.84
2023-03-17T01:29:04.934Z,99382.31
2023-03-17T01:31:32.075Z,99382.53
2023-03-17T01:33:59.085Z,99362.41
2023-03-17T01:36:26.468Z,99357.53
2023-03-17T01:38:53.816Z,99354.25
2023-03-17T01:41:21.221Z,99339.84
2023-03-17T01:43:48.488Z,99346.91
2023-03-17T01:46:35.368Z,99355.78
2023-03-17T01:49:31.570Z,99354.09
2023-03-17T01:52:09.126Z,99351.28
2023-03-17T01:54:50.540Z,99345.97
2023-03-17T01:57:53.431Z,99346.03
2023-03-17T02:00:24.278Z,99348.69
2023-03-17T02:02:55.548Z,99340.03
2023-03-17T02:05:29.884Z,99352.13
2023-03-17T02:07:57.426Z,99344.34
2023-03-17T02:10:28.865Z,99347.06
2023-03-17T02:12:59.987Z,99337.47
2023-03-17T02:15:37.950Z,99335.50
2023-03-17T02:18:05.282Z,99330.22
2023-03-17T02:20:32.782Z,99330.25
2023-03-17T02:23:00.893Z,99321.31
2023-03-17T02:25:30.806Z,99323.03
2023-03-17T02:28:04.033Z,99319.44
2023-03-17T02:30:33.148Z,99328.09
2023-03-17T02:33:00.202Z,99331.50
2023-03-17T02:35:27.483Z,99332.63
2023-03-17T02:37:54.520Z,99328.16
2023-03-17T02:40:22.136Z,99321.81
2023-03-17T02:42:49.524Z,99313.78
2023-03-17T02:45:17.163Z,99324.81
2023-03-17T02:47:44.512Z,99311.72
2023-03-17T02:50:23.328Z,99296.78
2023-03-17T02:52:51.274Z,99297.59
2023-03-17T02:55:18.851Z,99295.59
2023-03-17T02:57:46.266Z,99307.72
2023-03-17T03:00:14.404Z,99300.50
2023-03-17T03:02:42.235Z,99320.63
2023-03-17T03:05:10.753Z,99319.69
2023-03-17T03:07:37.797Z,99328.41
2023-03-17T03:10:05.846Z,99329.31
2023-03-17T03:12:33.626Z,99331.78
2023-03-17T03:15:00.844Z,99327.19
2023-03-17T03:17:27.803Z,99346.56
2023-03-17T03:19:55.453Z,99329.88
2023-03-17T03:22:22.495Z,99323.63
2023-03-17T03:24:49.562Z,99314.06
2023-03-17T03:27:17.018Z,99308.59
2023-03-17T03:29:44.072Z,99321.47
2023-03-17T03:32:11.619Z,99334.81
2023-03-17T03:34:38.648Z,99336.78
2023-03-17T03:37:06.036Z,99333.06
2023-03-17T03:39:33.115Z,99326.94
2023-03-17T03:42:00.734Z,99329.53
2023-03-17T03:44:27.671Z,99330.94
2023-03-17T03:46:57.987Z,99336.88
2023-03-17T03:49:25.029Z,99341.25
2023-03-17T03:51:52.075Z,99344.59
2023-03-17T03:54:19.033Z,99346.91
2023-03-17T03:56:45.955Z,99356.41
2023-03-17T03:59:12.928Z,99351.94
2023-03-17T04:01:40.226Z,99358.78
2023-03-17T04:04:07.575Z,99361.25
2023-03-17T04:06:34.564Z,99372.53
2023-03-17T04:09:02.431Z,99376.78
2023-03-17T04:11:29.482Z,99378.28
2023-03-17T04:13:56.571Z,99370.75
2023-03-17T04:16:23.971Z,99385.34
2023-03-17T04:18:51.312Z,99391.34
2023-03-17T04:21:19.076Z,99385.28
2023-03-17T04:23:46.625Z,99388.75
2023-03-17T04:26:13.825Z,99386.88
2023-03-17T04:28:40.966Z,99384.13
2023-03-17T04:31:12.441Z,99392.84
2023-03-17T04:33:40.321Z,99385.00
2023-03-17T04:36:08.666Z,99394.66
2023-03-17T04:38:35.675Z,99394.56
2023-03-17T04:41:03.121Z,99400.41
2023-03-17T04:43:30.375Z,99409.16
2023-03-17T04:45:57.449Z,99413.50
2023-03-17T04:48:24.414Z,99418.47
2023-03-17T04:50:51.769Z,99428.44
2023-03-17T04:53:19.059Z,99463.22
2023-03-17T04:55:46.004Z,99457.03
2023-03-17T04:58:21.113Z,99474.63
2023-03-17T05:00:55.088Z,99480.50
2023-03-17T05:03:27.203Z,99477.84
2023-03-17T05:05:55.576Z,99476.03
2023-03-17T05:08:22.674Z,99475.78
2023-03-17T05:10:51.134Z,99479.25
2023-03-17T05:13:19.190Z,99499.06
2023-03-17T05:15:51.629Z,99497.72
2023-03-17T05:18:20.447Z,99492.59
2023-03-17T05:20:47.439Z,99497.84
2023-03-17T05:23:15.180Z,99498.63
2023-03-17T05:25:42.279Z,99508.03
2023-03-17T05:28:10.209Z,99513.31
2023-03-17T05:30:37.967Z,99513.34
2023-03-17T05:33:06.103Z,99516.84
2023-03-17T05:35:33.423Z,99547.56
2023-03-17T05:38:00.780Z,99553.63
2023-03-17T05:40:28.233Z,99548.28
2023-03-17T05:42:55.541Z,99559.69
2023-03-17T05:45:23.072Z,99583.13
2023-03-17T05:47:50.479Z,99595.66
2023-03-17T05:50:17.952Z,99587.44
2023-03-17T05:52:45.226Z,99586.44
2023-03-17T05:55:12.624Z,99583.41
2023-03-17T05:57:39.998Z,99578.56
2023-03-17T06:00:08.442Z,99579.44
2023-03-17T06:02:35.881Z,99579.22
2023-03-17T06:05:03.736Z,99575.75
2023-03-17T06:07:41.314Z,99571.63
2023-03-17T06:10:16.259Z,99582.06
2023-03-17T06:12:43.549Z,99587.53
2023-03-17T06:15:11.055Z,99604.44
2023-03-17T06:17:39.160Z,99627.66
2023-03-17T06:20:06.762Z,99634.91
2023-03-17T06:22:33.760Z,99626.13
2023-03-17T06:25:01.997Z,99620.56
2023-03-17T06:27:28.987Z,99627.72
2023-03-17T06:29:57.561Z,99686.84
2023-03-17T06:32:25.060Z,99665.72
2023-03-17T06:34:53.820Z,99675.00
2023-03-17T06:37:21.545Z,99690.50
2023-03-17T06:39:48.603Z,99672.81
2023-03-17T06:42:17.283Z,99669.84
2023-03-17T06:44:45.411Z,99664.91
2023-03-17T06:47:13.568Z,99673.97
2023-03-17T06:49:41.109Z,99687.56
2023-03-17T06:52:08.885Z,99685.09
2023-03-17T06:54:36.704Z,99684.50
2023-03-17T06:57:04.171Z,99699.69
2023-03-17T06:59:31.591Z,99692.03
2023-03-17T07:01:59.465Z,99686.97
2023-03-17T07:04:27.330Z,99686.13
2023-03-17T07:06:54.763Z,99682.16
2023-03-17T07:09:22.432Z,99682.31
2023-03-17T07:11:49.970Z,99677.22
2023-03-17T07:14:17.380Z,99685.97
2023-03-17T07:16:45.256Z,99673.78
2023-03-17T07:19:13.060Z,99666.84
2023-03-17T07:21:41.043Z,99658.13
2023-03-17T07:24:08.631Z,99664.28
2023-03-17T07:26:36.132Z,99652.13
2023-03-17T07:29:03.701Z,99666.25
2023-03-17T07:31:31.197Z,99652.25
2023-03-17T07:33:58.616Z,99662.03
2023-03-17T07:36:26.294Z,99656.00
2023-03-17T07:38:53.602Z,99657.94
2023-03-17T07:41:22.321Z,99662.41
2023-03-17T07:43:49.989Z,99670.44
2023-03-17T07:46:17.581Z,99661.63
2023-03-17T07:48:45.055Z,99669.06
2023-03-17T07:51:19.312Z,99647.38
2023-03-17T07:53:47.127Z,99645.84
2023-03-17T07:56:14.496Z,99652.97
2023-03-17T07:58:42.019Z,99631.19
2023-03-17T08:01:09.897Z,99618.94
2023-03-17T08:03:39.878Z,99606.81
2023-03-17T08:06:08.746Z,99621.00
2023-03-17T08:08:37.032Z,99610.53
2023-03-17T08:11:06.101Z,99588.63
2023-03-17T08:13:34.103Z,99591.44
2023-03-17T08:16:21.595Z,99578.38
2023-03-17T08:18:48.661Z,99585.53
2023-03-17T08:21:16.931Z,99561.94
2023-03-17T08:23:44.500Z,99555.88
2023-03-17T08:26:14.369Z,99563.00
2023-03-17T08:28:41.834Z,99557.00
2023-03-17T08:31:13.556Z,99525.41
2023-03-17T08:33:42.590Z,99529.03
2023-03-17T08:36:11.480Z,99507.16
2023-03-17T08:38:40.173Z,99493.25
2023-03-17T08:41:12.486Z,99468.75
2023-03-17T08:43:40.699Z,99426.63
2023-03-17T08:46:22.475Z,99399.44
2023-03-17T08:48:52.531Z,99438.16
2023-03-17T08:51:24.570Z,99430.28
2023-03-17T08:53:52.990Z,99422.38
2023-03-17T08:56:20.687Z,99379.31
2023-03-17T08:58:48.960Z,99363.50
2023-03-17T09:01:17.101Z,99352.03
2023-03-17T09:03:45.299Z,99386.31
2023-03-17T09:06:13.635Z,99342.34
2023-03-17T09:08:45.152Z,99326.50
2023-03-17T09:11:16.775Z,99336.97
2023-03-17T09:13:44.960Z,99291.13
2023-03-17T09:16:16.360Z,99217.31
2023-03-17T09:18:44.365Z,99249.72
2023-03-17T09:21:14.130Z,99211.13
2023-03-17T09:23:41.696Z,99171.44
2023-03-17T09:26:09.123Z,99252.94
2023-03-17T09:28:37.365Z,99202.47
2023-03-17T09:31:11.616Z,99134.78
2023-03-17T09:33:42.359Z,99135.41
2023-03-17T09:36:10.775Z,99126.75
2023-03-17T09:38:38.571Z,99087.25
2023-03-17T09:41:20.754Z,99160.97
2023-03-17T09:44:32.285Z,99148.63
2023-03-17T09:47:28.473Z,99156.16
2023-03-17T09:50:03.508Z,99064.56
2023-03-17T09:52:37.490Z,99057.50
2023-03-17T09:55:08.648Z,99045.03
2023-03-17T09:57:38.467Z,99068.69
2023-03-17T10:00:23.208Z,99006.13
2023-03-17T10:02:50.531Z,99021.03
2023-03-17T10:05:21.739Z,99048.09
2023-03-17T10:08:30.706Z,98997.91
2023-03-17T10:11:25.620Z,99084.56
2023-03-17T10:14:23.833Z,99032.97
2023-03-17T10:17:16.528Z,98991.50
2023-03-17T10:19:59.854Z,98935.72
2023-03-17T10:22:59.049Z,98942.34
2023-03-17T10:25:37.578Z,98902.69
2023-03-17T10:28:21.956Z,98863.00
2023-03-17T10:30:49.491Z,98806.41
2023-03-17T10:33:16.925Z,98773.75
2023-03-17T10:35:45.072Z,98713.28
2023-03-17T10:38:22.685Z,98742.72
2023-03-17T10:41:09.965Z,98708.56
2023-03-17T10:43:50.772Z,98732.13
2023-03-17T10:46:25.750Z,98731.91
2023-03-17T10:48:58.340Z,98728.81
2023-03-17T10:51:33.552Z,98696.56
2023-03-17T10:54:08.177Z,98758.91
2023-03-17T10:56:38.143Z,98755.22
2023-03-17T10:59:25.338Z,98754.41
2023-03-17T11:02:00.845Z,98755.31
2023-03-17T11:04:34.349Z,98760.56
2023-03-17T11:07:17.577Z,98753.50
2023-03-17T11:09:49.196Z,98783.97
2023-03-17T11:12:29.952Z,98827.75
2023-03-17T11:15:07.421Z,98722.88
2023-03-17T11:17:59.027Z,98749.59
2023-03-17T11:20:47.039Z,98663.28
2023-03-17T11:23:47.469Z,98669.47
2023-03-17T11:26:38.288Z,98748.47
2023-03-17T11:29:23.824Z,98733.28
2023-03-17T11:32:01.817Z,98634.66
2023-03-17T11:34:52.607Z,98584.53
2023-03-17T11:37:28.096Z,98625.22
2023-03-17T11:40:43.809Z,98615.28
2023-03-17T11:43:45.442Z,98635.06
2023-03-17T11:46:28.313Z,98613.78
2023-03-17T11:49:16.769Z,98549.41
2023-03-17T11:52:14.504Z,98579.56
2023-03-17T11:55:00.316Z,98641.69
2023-03-17T11:58:02.461Z,98556.28
2023-03-17T12:00:42.077Z,98592.94
2023-03-17T12:03:43.672Z,98517.50
2023-03-17T12:06:20.968Z,98504.56
2023-03-17T12:09:01.040Z,98536.78
2023-03-17T12:11:37.420Z,98534.28
2023-03-17T12:14:33.865Z,98472.19
2023-03-17T12:17:05.378Z,98452.56
2023-03-17T12:19:58.394Z,98467.38
2023-03-17T12:22:35.027Z,98437.50
2023-03-17T12:25:10.284Z,98451.16
2023-03-17T12:27:48.223Z,98421.44
2023-03-17T12:30:33.387Z,98396.53
2023-03-17T12:33:36.971Z,98353.59
2023-03-17T12:36:06.920Z,98363.09
2023-03-17T12:39:05.679Z,98333.22
2023-03-17T12:42:10.054Z,98405.91
2023-03-17T12:44:53.308Z,98350.38
2023-03-17T12:47:57.288Z,98335.94
2023-03-17T12:50:26.037Z,98349.59
2023-03-17T12:53:31.663Z,98343.34
2023-03-17T12:56:27.479Z,98324.44
2023-03-17T12:59:24.215Z,98406.03
2023-03-17T13:02:16.365Z,98372.97
2023-03-17T13:05:00.866Z,98269.81
2023-03-17T13:07:51.657Z,98249.34
2023-03-17T13:10:42.003Z,98172.91
2023-03-17T13:13:30.363Z,98180.75
2023-03-17T13:16:00.688Z,98250.88
2023-03-17T13:18:36.734Z,98229.13
2023-03-17T13:21:04.225Z,98229.66
2023-03-17T13:23:59.441Z,98199.94
2023-03-17T13:26:53.674Z,98146.38
2023-03-17T13:29:39.495Z,98147.63
2023-03-17T13:32:27.406Z,98151.25
2023-03-17T13:35:01.796Z,98167.25
2023-03-17T13:38:03.466Z,98143.47
2023-03-17T13:40:40.654Z,98150.88
2023-03-17T13:43:43.486Z,98176.94
2023-03-17T13:46:30.446Z,98141.59
2023-03-17T13:49:04.191Z,98135.13
2023-03-17T13:51:34.692Z,98197.09
2023-03-17T13:54:30.443Z,98163.31
2023-03-17T13:57:24.173Z,98128.47
2023-03-17T14:00:17.721Z,98161.19
2023-03-17T14:02:46.238Z,98089.09
2023-03-17T14:05:38.152Z,98089.38
2023-03-17T14:08:18.471Z,98146.50
2023-03-17T14:11:00.652Z,98058.91
2023-03-17T14:14:31.239Z,98095.22
2023-03-17T14:17:29.332Z,98103.00
2023-03-17T14:20:18.580Z,98110.63
2023-03-17T14:26:37.586Z,98090.38
2023-03-17T14:29:05.639Z,98113.72
2023-03-17T14:31:33.053Z,98121.03
2023-03-17T14:34:01.719Z,98147.84
2023-03-17T14:36:33.670Z,98158.84
2023-03-17T14:39:01.031Z,98138.44
2023-03-17T14:41:29.337Z,98178.91
2023-03-17T14:44:00.978Z,98165.16
2023-03-17T14:46:33.971Z,98150.81
2023-03-17T14:49:17.020Z,98114.03
2023-03-17T14:51:44.918Z,98117.56
2023-03-17T14:54:22.578Z,98115.50
2023-03-17T14:57:02.228Z,98177.34
2023-03-17T14:59:38.594Z,98227.63
2023-03-17T15:02:24.044Z,98189.78
2023-03-17T15:05:19.860Z,98223.28
2023-03-17T15:07:47.231Z,98235.66
2023-03-17T15:10:29.620Z,98183.59
2023-03-17T15:13:06.388Z,98152.50
2023-03-17T15:15:38.307Z,98182.53
2023-03-17T15:18:12.010Z,98214.59
2023-03-17T15:20:39.685Z,98256.34
2023-03-17T15:23:18.243Z,98259.88
2023-03-17T15:25:55.856Z,98249.34
2023-03-17T15:28:27.734Z,98277.78
2023-03-17T15:31:05.938Z,98276.06
2023-03-17T15:33:39.698Z,98283.09
2023-03-17T15:36:07.782Z,98305.31
2023-03-17T15:38:38.912Z,98320.25
2023-03-17T15:41:06.348Z,98322.97
2023-03-17T15:43:34.819Z,98334.72
2023-03-17T15:46:10.555Z,98332.13
2023-03-17T15:48:38.044Z,98330.69
2023-03-17T15:51:06.421Z,98359.91
2023-03-17T15:53:33.801Z,98306.72
2023-03-17T15:56:01.378Z,98281.88
2023-03-17T15:58:28.755Z,98278.34
2023-03-17T16:00:57.940Z,98257.00
2023-03-17T16:03:32.916Z,98257.94
2023-03-17T16:06:02.684Z,98251.03
2023-03-17T16:08:30.243Z,98246.56
2023-03-17T16:10:57.610Z,98265.72
2023-03-17T16:13:24.988Z,98253.53
2023-03-17T16:16:00.403Z,98243.66
2023-03-17T16:18:37.701Z,98236.66
2023-03-17T16:21:05.691Z,98244.75
2023-03-17T16:23:37.026Z,98277.97
2023-03-17T16:26:14.841Z,98284.97
2023-03-17T16:28:45.163Z,98273.59
2023-03-17T16:31:22.613Z,98261.41
2023-03-17T16:33:50.807Z,98220.41
2023-03-17T16:36:20.091Z,98185.00
2023-03-17T16:38:47.944Z,98170.75
2023-03-17T16:41:27.639Z,98168.63
2023-03-17T16:44:02.543Z,98190.47
2023-03-17T16:46:35.085Z,98219.22
2023-03-17T16:49:04.322Z,98237.81
2023-03-17T16:51:31.743Z,98242.47
2023-03-17T16:53:58.719Z,98263.66
2023-03-17T16:56:27.008Z,98283.03
2023-03-17T16:58:54.408Z,98311.28
2023-03-17T17:01:25.501Z,98296.13
2023-03-17T17:03:53.415Z,98304.25
2023-03-17T17:06:22.859Z,98310.25
2023-03-17T17:08:51.180Z,98318.59
2023-03-17T17:11:19.722Z,98320.28
2023-03-17T17:13:48.892Z,98307.28
2023-03-17T17:16:30.762Z,98322.56
2023-03-17T17:18:59.659Z,98314.66
2023-03-17T17:21:27.646Z,98321.63
2023-03-17T17:23:55.528Z,98328.31
2023-03-17T17:26:23.110Z,98355.63
2023-03-17T17:28:50.564Z,98385.72
2023-03-17T17:31:18.041Z,98393.66
2023-03-17T17:33:45.616Z,98410.63
2023-03-17T17:36:16.641Z,98402.53
2023-03-17T17:38:44.261Z,98405.09
2023-03-17T17:41:12.963Z,98421.09
2023-03-17T17:43:40.802Z,98427.41
2023-03-17T17:46:21.545Z,98442.47
2023-03-17T17:48:49.438Z,98451.31
2023-03-17T17:51:17.027Z,98459.53
2023-03-17T17:53:44.814Z,98457.88
2023-03-17T17:56:16.095Z,98480.09
2023-03-17T17:58:45.368Z,98477.63
2023-03-17T18:01:14.239Z,98494.28
2023-03-17T18:03:42.974Z,98492.34
2023-03-17T18:06:12.907Z,98495.34
2023-03-17T18:08:40.589Z,98506.06
2023-03-17T18:11:08.790Z,98509.72
2023-03-17T18:13:38.999Z,98518.47
2023-03-17T18:16:10.053Z,98515.84
2023-03-17T18:18:40.688Z,98522.34
2023-03-17T18:21:08.242Z,98539.41
2023-03-17T18:23:36.523Z,98541.97
2023-03-17T18:26:06.188Z,98559.63
2023-03-17T18:28:34.167Z,98557.94
2023-03-17T18:31:10.649Z,98558.00
2023-03-17T18:33:39.146Z,98571.50
2023-03-17T18:36:07.135Z,98578.59
2023-03-17T18:38:35.746Z,98596.50
2023-03-17T18:41:04.212Z,98609.81
2023-03-17T18:43:31.429Z,98615.28
2023-03-17T18:45:58.886Z,98633.00
2023-03-17T18:48:26.347Z,98626.91
2023-03-17T18:50:53.996Z,98642.38
2023-03-17T18:53:22.383Z,98665.50
2023-03-17T18:55:49.777Z,98692.38
2023-03-17T18:58:17.203Z,98697.63
2023-03-17T19:00:44.636Z,98717.38
2023-03-17T19:03:12.087Z,98738.44
2023-03-17T19:05:39.702Z,98733.28
2023-03-17T19:08:07.046Z,98753.75
2023-03-17T19:10:34.609Z,98764.47
2023-03-17T19:13:02.018Z,98767.06
2023-03-17T19:15:30.024Z,98770.19
2023-03-17T19:17:57.478Z,98742.59
2023-03-17T19:20:24.963Z,98733.22
2023-03-17T19:22:53.445Z,98734.31
2023-03-17T19:25:21.338Z,98746.34
2023-03-17T19:27:48.310Z,98736.84
2023-03-17T19:30:16.210Z,98746.16
2023-03-17T19:32:43.447Z,98761.28
2023-03-17T19:35:11.729Z,98775.34
2023-03-17T19:37:39.102Z,98780.63
2023-03-17T19:40:10.304Z,98793.66
2023-03-17T19:42:37.282Z,98796.78
2023-03-17T19:45:06.152Z,98810.75
2023-03-17T19:47:33.086Z,98814.03
2023-03-17T19:50:00.186Z,98802.63
2023-03-17T19:52:27.137Z,98802.41
2023-03-17T19:54:54.199Z,98802.88
2023-03-17T19:57:21.236Z,98774.88
2023-03-17T19:59:48.232Z,98766.81
2023-03-17T20:02:16.793Z,98771.50
2023-03-17T20:04:44.649Z,98779.44
2023-03-17T20:07:11.893Z,98806.34
2023-03-17T20:09:39.434Z,98827.81
2023-03-17T20:12:08.097Z,98840.84
2023-03-17T20:14:35.174Z,98842.59
2023-03-17T20:17:02.309Z,98852.59
2023-03-17T20:19:29.340Z,98862.25
2023-03-17T20:21:58.550Z,98861.41
2023-03-17T20:24:27.109Z,98868.31
2023-03-17T20:26:57.000Z,98872.63
2023-03-17T20:29:24.465Z,98876.34
2023-03-17T20:31:51.804Z,98884.31
2023-03-17T20:34:18.893Z,98897.78
2023-03-17T20:36:46.126Z,98916.44
2023-03-17T20:39:19.662Z,98930.50
2023-03-17T20:41:51.703Z,98929.47
2023-03-17T20:44:19.411Z,98941.41
2023-03-17T20:46:47.674Z,98936.91
2023-03-17T20:49:17.808Z,98934.47
2023-03-17T20:51:46.350Z,98940.53
2023-03-17T20:54:13.829Z,98953.69
2023-03-17T20:56:41.212Z,98942.22
2023-03-17T20:59:09.797Z,98945.72
2023-03-17T21:01:38.764Z,98945.00
2023-03-17T21:04:09.308Z,98944.28
2023-03-17T21:06:37.554Z,98967.25
2023-03-17T21:09:05.524Z,98975.13
2023-03-17T21:11:32.567Z,98977.84
2023-03-17T21:13:59.688Z,98985.72
2023-03-17T21:16:29.862Z,98989.25
2023-03-17T21:18:57.786Z,98991.91
2023-03-17T21:21:25.167Z,98999.69
2023-03-17T21:23:52.252Z,99013.63
2023-03-17T21:26:19.629Z,99010.91
2023-03-17T21:28:47.622Z,99001.22
2023-03-17T21:31:16.037Z,98997.75
2023-03-17T21:33:43.449Z,98997.84
2023-03-17T21:36:11.241Z,98999.56
2023-03-17T21:38:39.005Z,99000.31
2023-03-17T21:41:29.236Z,98984.63
2023-03-17T21:44:00.932Z,99006.72
2023-03-17T21:46:28.214Z,99026.25
2023-03-17T21:48:56.115Z,99047.47
2023-03-17T21:51:23.614Z,99063.44
2023-03-17T21:53:50.914Z,99078.34
2023-03-17T21:56:18.759Z,99074.00
2023-03-17T21:58:45.822Z,99077.44
2023-03-17T22:01:12.900Z,99094.16
2023-03-17T22:03:40.103Z,99096.78
2023-03-17T22:06:08.298Z,99104.66
2023-03-17T22:08:35.747Z,99115.22
2023-03-17T22:11:09.120Z,99119.66
2023-03-17T22:13:37.391Z,99121.41
2023-03-17T22:16:05.183Z,99138.13
2023-03-17T22:18:32.802Z,99155.78
2023-03-17T22:21:00.703Z,99159.31
2023-03-17T22:23:29.079Z,99162.81
2023-03-17T22:25:57.411Z,99176.88
2023-03-17T22:28:25.571Z,99176.84
2023-03-17T22:30:52.614Z,99194.34
2023-03-17T22:33:19.566Z,99198.75
2023-03-17T22:35:47.018Z,99201.38
2023-03-17T22:38:14.102Z,99194.28
2023-03-17T22:40:41.506Z,99192.38
2023-03-17T22:43:08.585Z,99173.91
2023-03-17T22:45:35.645Z,99165.13
2023-03-17T22:48:02.636Z,99164.28
2023-03-17T22:50:29.887Z,99157.19
2023-03-17T22:52:57.099Z,99165.88
2023-03-17T22:55:24.102Z,99164.03
2023-03-17T22:57:51.589Z,99159.69
2023-03-17T23:00:19.749Z,99157.84
2023-03-17T23:02:46.781Z,99140.16
2023-03-17T23:05:14.638Z,99118.88
2023-03-17T23:07:50.305Z,99112.75
2023-03-17T23:10:23.171Z,99103.91
2023-03-17T23:12:51.457Z,99095.22
2023-03-17T23:15:19.948Z,99112.09
2023-03-17T23:17:47.601Z,99137.72
2023-03-17T23:20:15.464Z,99141.25
2023-03-17T23:22:43.086Z,99151.88
2023-03-17T23:25:12.653Z,99170.47
2023-03-17T23:27:40.751Z,99199.56
2023-03-17T23:30:11.281Z,99197.75
2023-03-17T23:32:40.784Z,99182.69
2023-03-17T23:35:09.475Z,99162.31
2023-03-17T23:37:37.328Z,99125.34
2023-03-17T23:40:09.670Z,99120.03
2023-03-17T23:42:37.066Z,99113.91
2023-03-17T23:45:04.862Z,99113.09
2023-03-17T23:47:31.977Z,99135.19
2023-03-17T23:49:59.022Z,99136.09
2023-03-17T23:52:26.332Z,99140.47
2023-03-17T23:54:53.517Z,99152.94
2023-03-17T23:57:20.944Z,99172.34
2023-03-17T23:59:47.958Z,99164.25
